createdAt,value
2022-08-29T00:01:13.386Z,99.90
2022-08-29T00:03:41.011Z,99.90
2022-08-29T00:06:09.149Z,99.90
2022-08-29T00:08:36.067Z,99.90
2022-08-29T00:11:03.395Z,99.90
2022-08-29T00:13:30.255Z,99.90
2022-08-29T00:15:59.229Z,99.90
2022-08-29T00:18:26.626Z,99.90
2022-08-29T00:20:54.493Z,99.90
2022-08-29T00:23:21.357Z,99.90
2022-08-29T00:25:49.358Z,99.90
2022-08-29T00:28:16.536Z,99.90
2022-08-29T00:30:43.575Z,99.90
2022-08-29T00:33:10.464Z,99.90
2022-08-29T00:35:40.489Z,99.90
2022-08-29T00:38:09.451Z,99.90
2022-08-29T00:40:50.378Z,99.90
2022-08-29T00:43:24.583Z,99.90
2022-08-29T00:46:03.090Z,99.90
2022-08-29T00:48:30.270Z,99.90
2022-08-29T00:51:05.229Z,99.90
2022-08-29T00:53:38.612Z,99.90
2022-08-29T00:56:08.647Z,99.90
2022-08-29T00:59:00.725Z,99.90
2022-08-29T01:01:27.657Z,99.90
2022-08-29T01:03:54.827Z,99.90
2022-08-29T01:06:22.429Z,99.90
2022-08-29T01:08:57.181Z,99.90
2022-08-29T01:11:45.779Z,99.90
2022-08-29T01:14:13.320Z,99.90
2022-08-29T01:16:40.976Z,99.90
2022-08-29T01:19:29.834Z,99.90
2022-08-29T01:22:24.353Z,99.90
2022-08-29T01:24:53.142Z,99.90
2022-08-29T01:27:23.517Z,99.90
2022-08-29T01:29:51.069Z,99.90
2022-08-29T01:32:18.105Z,99.90
2022-08-29T01:34:46.258Z,99.90
2022-08-29T01:37:16.569Z,99.90
2022-08-29T01:39:46.425Z,99.90
2022-08-29T01:42:20.671Z,99.90
2022-08-29T01:44:54.828Z,99.90
2022-08-29T01:47:26.486Z,99.90
2022-08-29T01:49:55.759Z,99.90
2022-08-29T01:52:22.732Z,99.90
2022-08-29T01:54:49.597Z,99.90
2022-08-29T01:57:17.891Z,99.90
2022-08-29T01:59:45.380Z,99.90
2022-08-29T02:02:18.035Z,99.90
2022-08-29T02:04:47.309Z,99.90
2022-08-29T02:07:17.499Z,99.90
2022-08-29T02:09:46.076Z,99.90
2022-08-29T02:12:14.423Z,99.90
2022-08-29T02:14:41.580Z,99.90
2022-08-29T02:17:08.918Z,99.90
2022-08-29T02:19:37.425Z,99.90
2022-08-29T02:22:05.953Z,99.90
2022-08-29T02:24:32.783Z,99.90
2022-08-29T02:26:59.954Z,99.90
2022-08-29T02:29:30.993Z,99.90
2022-08-29T02:32:11.941Z,99.90
2022-08-29T02:34:39.936Z,99.90
2022-08-29T02:37:11.253Z,99.90
2022-08-29T02:39:38.345Z,99.90
2022-08-29T02:42:06.570Z,99.90
2022-08-29T02:44:33.593Z,99.90
2022-08-29T02:47:00.545Z,99.90
2022-08-29T02:49:27.401Z,99.90
2022-08-29T02:51:55.433Z,99.90
2022-08-29T02:54:23.624Z,99.90
2022-08-29T02:56:50.642Z,99.90
2022-08-29T02:59:18.711Z,99.90
2022-08-29T03:01:46.713Z,99.90
2022-08-29T03:04:14.667Z,99.90
2022-08-29T03:06:42.526Z,99.90
2022-08-29T03:09:10.610Z,99.90
2022-08-29T03:11:37.458Z,99.90
2022-08-29T03:14:04.707Z,99.90
2022-08-29T03:16:33.671Z,99.90
2022-08-29T03:19:00.587Z,99.90
2022-08-29T03:21:28.446Z,99.90
2022-08-29T03:23:56.600Z,99.90
2022-08-29T03:26:24.052Z,99.90
2022-08-29T03:28:51.285Z,99.90
2022-08-29T03:31:18.462Z,99.90
2022-08-29T03:33:45.370Z,99.90
2022-08-29T03:36:14.907Z,99.90
2022-08-29T03:38:43.674Z,99.90
2022-08-29T03:41:10.970Z,99.90
2022-08-29T03:43:38.250Z,99.90
2022-08-29T03:46:05.414Z,99.90
2022-08-29T03:48:33.904Z,99.90
2022-08-29T03:51:00.950Z,99.90
2022-08-29T03:53:27.891Z,99.90
2022-08-29T03:55:54.793Z,99.90
2022-08-29T03:58:22.352Z,99.90
2022-08-29T04:00:49.585Z,99.90
2022-08-29T04:03:16.659Z,99.90
2022-08-29T04:05:43.533Z,99.90
2022-08-29T04:08:10.431Z,99.90
2022-08-29T04:10:39.478Z,99.90
2022-08-29T04:13:08.089Z,99.90
2022-08-29T04:15:37.402Z,99.90
2022-08-29T04:18:07.236Z,99.90
2022-08-29T04:20:41.400Z,99.90
2022-08-29T04:23:08.417Z,99.90
2022-08-29T04:25:38.153Z,99.90
2022-08-29T04:28:10.228Z,99.90
2022-08-29T04:30:39.764Z,99.90
2022-08-29T04:33:06.983Z,99.90
2022-08-29T04:35:35.596Z,99.90
2022-08-29T04:38:02.596Z,99.90
2022-08-29T04:40:30.584Z,99.90
2022-08-29T04:42:59.471Z,99.90
2022-08-29T04:45:27.043Z,99.90
2022-08-29T04:47:53.962Z,99.90
2022-08-29T04:50:23.328Z,99.90
2022-08-29T04:52:56.480Z,99.90
2022-08-29T04:55:25.485Z,99.90
2022-08-29T04:57:53.738Z,99.90
2022-08-29T05:00:25.232Z,99.90
2022-08-29T05:02:52.246Z,99.90
2022-08-29T05:05:19.269Z,99.90
2022-08-29T05:07:47.522Z,99.90
2022-08-29T05:10:20.036Z,99.90
2022-08-29T05:12:47.077Z,99.90
2022-08-29T05:15:15.337Z,99.90
2022-08-29T05:17:43.719Z,99.90
2022-08-29T05:20:12.812Z,99.90
2022-08-29T05:22:42.139Z,99.90
2022-08-29T05:25:18.194Z,99.90
2022-08-29T05:27:45.625Z,99.90
2022-08-29T05:30:12.736Z,99.90
2022-08-29T05:32:39.635Z,99.90
2022-08-29T05:35:06.968Z,99.90
2022-08-29T05:37:33.910Z,99.90
2022-08-29T05:40:00.839Z,99.90
2022-08-29T05:42:27.737Z,99.90
2022-08-29T05:44:56.485Z,99.90
2022-08-29T05:47:23.629Z,99.90
2022-08-29T05:49:51.010Z,99.90
2022-08-29T05:52:20.447Z,99.90
2022-08-29T05:54:47.790Z,99.90
2022-08-29T05:57:19.150Z,99.90
2022-08-29T05:59:51.602Z,99.90
2022-08-29T06:02:19.488Z,99.90
2022-08-29T06:04:46.705Z,99.90
2022-08-29T06:07:15.157Z,99.90
2022-08-29T06:09:44.128Z,99.90
2022-08-29T06:12:13.834Z,99.90
2022-08-29T06:14:41.638Z,99.90
2022-08-29T06:17:17.240Z,99.90
2022-08-29T06:19:45.640Z,99.90
2022-08-29T06:22:13.089Z,99.90
2022-08-29T06:24:44.539Z,99.90
2022-08-29T06:27:12.422Z,99.90
2022-08-29T06:29:43.670Z,99.90
2022-08-29T06:32:13.074Z,99.90
2022-08-29T06:34:40.824Z,99.90
2022-08-29T06:37:07.867Z,99.90
2022-08-29T06:39:35.826Z,99.90
2022-08-29T06:42:02.796Z,99.90
2022-08-29T06:44:32.330Z,99.90
2022-08-29T06:46:59.640Z,99.90
2022-08-29T06:49:27.868Z,99.90
2022-08-29T06:51:58.239Z,99.90
2022-08-29T06:54:28.017Z,99.90
2022-08-29T06:56:56.467Z,99.90
2022-08-29T06:59:23.505Z,99.90
2022-08-29T07:01:51.584Z,99.90
2022-08-29T07:04:20.623Z,99.90
2022-08-29T07:06:48.851Z,99.90
2022-08-29T07:09:15.928Z,99.90
2022-08-29T07:11:43.112Z,99.90
2022-08-29T07:14:12.704Z,99.90
2022-08-29T07:16:41.672Z,99.90
2022-08-29T07:19:10.451Z,99.90
2022-08-29T07:21:38.297Z,99.90
2022-08-29T07:24:06.030Z,99.90
2022-08-29T07:26:36.895Z,99.90
2022-08-29T07:29:09.433Z,99.90
2022-08-29T07:31:36.379Z,99.90
2022-08-29T07:34:03.430Z,99.90
2022-08-29T07:36:31.955Z,99.90
2022-08-29T07:38:58.872Z,99.90
2022-08-29T07:41:26.494Z,99.90
2022-08-29T07:43:53.386Z,99.90
2022-08-29T07:46:21.012Z,99.90
2022-08-29T07:48:48.467Z,99.90
2022-08-29T07:51:18.822Z,99.90
2022-08-29T07:53:46.742Z,99.90
2022-08-29T07:56:17.962Z,99.90
2022-08-29T07:58:46.317Z,99.90
2022-08-29T08:01:20.560Z,99.90
2022-08-29T08:03:50.642Z,99.90
2022-08-29T08:06:21.283Z,99.90
2022-08-29T08:08:48.626Z,99.90
2022-08-29T08:11:15.862Z,99.90
2022-08-29T08:13:42.732Z,99.90
2022-08-29T08:16:12.920Z,99.90
2022-08-29T08:18:42.132Z,99.90
2022-08-29T08:21:09.847Z,99.90
2022-08-29T08:23:38.141Z,99.90
2022-08-29T08:26:07.387Z,99.90
2022-08-29T08:28:34.986Z,99.90
2022-08-29T08:31:06.449Z,99.90
2022-08-29T08:33:35.587Z,99.90
2022-08-29T08:36:03.992Z,99.90
2022-08-29T08:38:31.656Z,99.90
2022-08-29T08:41:13.495Z,99.90
2022-08-29T08:43:56.380Z,99.90
2022-08-29T08:46:43.178Z,99.90
2022-08-29T08:49:31.795Z,99.90
2022-08-29T08:52:05.959Z,99.90
2022-08-29T08:54:39.819Z,99.90
2022-08-29T08:57:10.094Z,99.90
2022-08-29T08:59:55.418Z,99.90
2022-08-29T09:02:22.677Z,99.90
2022-08-29T09:04:55.457Z,99.90
2022-08-29T09:07:48.073Z,99.90
2022-08-29T09:10:32.561Z,99.90
2022-08-29T09:13:18.389Z,99.90
2022-08-29T09:15:47.940Z,99.90
2022-08-29T09:18:39.213Z,99.90
2022-08-29T09:21:40.178Z,99.90
2022-08-29T09:24:12.485Z,99.90
2022-08-29T09:26:39.456Z,99.90
2022-08-29T09:29:09.993Z,99.90
2022-08-29T09:31:37.663Z,99.90
2022-08-29T09:34:13.021Z,99.90
2022-08-29T09:36:51.057Z,99.90
2022-08-29T09:39:36.780Z,99.90
2022-08-29T09:42:12.833Z,99.90
2022-08-29T09:44:41.662Z,99.90
2022-08-29T09:47:11.330Z,99.90
2022-08-29T09:49:40.369Z,99.90
2022-08-29T09:52:15.236Z,99.90
2022-08-29T09:54:44.007Z,99.90
2022-08-29T09:57:19.090Z,99.90
2022-08-29T09:59:49.749Z,99.90
2022-08-29T10:02:19.986Z,99.90
2022-08-29T10:04:56.982Z,99.90
2022-08-29T10:07:33.791Z,99.90
2022-08-29T10:10:15.597Z,99.90
2022-08-29T10:13:09.040Z,99.90
2022-08-29T10:15:58.750Z,99.90
2022-08-29T10:18:51.786Z,99.90
2022-08-29T10:22:02.178Z,99.90
2022-08-29T10:24:41.010Z,99.90
2022-08-29T10:27:35.134Z,99.90
2022-08-29T10:30:12.854Z,99.90
2022-08-29T10:32:49.666Z,99.90
2022-08-29T10:35:24.376Z,99.90
2022-08-29T10:38:18.398Z,99.90
2022-08-29T10:40:49.801Z,99.90
2022-08-29T10:43:28.405Z,99.90
2022-08-29T10:46:21.016Z,99.90
2022-08-29T10:49:05.034Z,99.90
2022-08-29T10:51:47.590Z,99.90
2022-08-29T10:54:43.804Z,99.90
2022-08-29T10:57:17.139Z,99.90
2022-08-29T11:00:17.650Z,99.90
2022-08-29T11:03:08.176Z,99.90
2022-08-29T11:05:46.601Z,99.90
2022-08-29T11:08:20.778Z,99.90
2022-08-29T11:10:52.088Z,99.90
2022-08-29T11:13:31.720Z,99.90
2022-08-29T11:16:15.375Z,99.90
2022-08-29T11:19:10.089Z,99.90
2022-08-29T11:21:59.566Z,99.90
2022-08-29T11:24:34.428Z,99.90
2022-08-29T11:27:27.005Z,99.90
2022-08-29T11:30:07.792Z,99.90
2022-08-29T11:32:50.230Z,99.90
2022-08-29T11:35:33.244Z,99.90
2022-08-29T11:38:03.511Z,99.90
2022-08-29T11:43:52.186Z,99.90
2022-08-29T11:46:35.470Z,99.90
2022-08-29T11:49:29.222Z,99.90
2022-08-29T11:52:15.869Z,99.90
2022-08-29T11:54:54.021Z,99.90
2022-08-29T11:57:20.913Z,99.90
2022-08-29T11:59:56.730Z,99.90
2022-08-29T12:02:33.752Z,99.90
2022-08-29T12:05:07.833Z,99.90
2022-08-29T12:07:36.670Z,99.90
2022-08-29T12:10:12.342Z,99.90
2022-08-29T12:12:44.534Z,99.90
2022-08-29T12:15:38.125Z,99.70
2022-08-29T12:18:09.883Z,99.00
2022-08-29T12:20:43.158Z,99.00
2022-08-29T12:23:13.184Z,99.20
2022-08-29T12:25:43.728Z,99.50
2022-08-29T12:28:17.832Z,99.10
2022-08-29T12:30:51.603Z,98.20
2022-08-29T12:33:29.739Z,97.80
2022-08-29T12:36:15.846Z,96.90
2022-08-29T12:39:08.283Z,96.00
2022-08-29T12:42:01.320Z,95.50
2022-08-29T12:44:35.463Z,95.70
2022-08-29T12:47:08.910Z,95.10
2022-08-29T12:49:53.225Z,94.80
2022-08-29T12:52:37.986Z,95.10
2022-08-29T12:55:26.837Z,94.80
2022-08-29T12:57:56.816Z,94.50
2022-08-29T13:00:30.115Z,93.90
2022-08-29T13:02:59.283Z,93.60
2022-08-29T13:05:29.242Z,94.50
2022-08-29T13:08:24.126Z,93.80
2022-08-29T13:10:59.477Z,92.90
2022-08-29T13:13:27.875Z,92.60
2022-08-29T13:16:02.946Z,92.10
2022-08-29T13:18:40.499Z,91.50
2022-08-29T13:21:29.734Z,92.30
2022-08-29T13:24:00.600Z,93.20
2022-08-29T13:26:29.053Z,93.20
2022-08-29T13:28:57.415Z,92.40
2022-08-29T13:31:36.377Z,92.10
2022-08-29T13:34:14.054Z,91.40
2022-08-29T13:36:50.836Z,91.20
2022-08-29T13:39:17.905Z,90.30
2022-08-29T13:42:14.989Z,90.20
2022-08-29T13:44:52.001Z,90.10
2022-08-29T13:47:26.475Z,89.40
2022-08-29T13:49:59.287Z,89.20
2022-08-29T13:52:29.407Z,89.70
2022-08-29T13:54:59.570Z,90.20
2022-08-29T13:57:29.337Z,90.10
2022-08-29T13:59:59.133Z,90.00
2022-08-29T14:02:27.857Z,88.60
2022-08-29T14:04:54.997Z,88.00
2022-08-29T14:07:25.972Z,88.90
2022-08-29T14:09:52.921Z,88.90
2022-08-29T14:12:21.489Z,88.60
2022-08-29T14:15:05.273Z,88.80
2022-08-29T14:17:40.267Z,89.70
2022-08-29T14:20:12.589Z,90.10
2022-08-29T14:22:39.941Z,90.80
2022-08-29T14:25:08.918Z,91.10
2022-08-29T14:27:36.454Z,91.20
2022-08-29T14:30:06.044Z,91.30
2022-08-29T14:32:33.124Z,91.60
2022-08-29T14:35:01.775Z,91.50
2022-08-29T14:37:28.686Z,91.50
2022-08-29T14:39:57.175Z,91.80
2022-08-29T14:42:27.668Z,91.90
2022-08-29T14:44:54.588Z,92.20
2022-08-29T14:47:21.415Z,92.40
2022-08-29T14:49:48.321Z,92.60
2022-08-29T14:52:17.352Z,92.60
2022-08-29T14:54:45.389Z,92.60
2022-08-29T14:57:12.547Z,92.60
2022-08-29T14:59:39.967Z,92.40
2022-08-29T15:02:10.018Z,92.50
2022-08-29T15:04:38.109Z,92.50
2022-08-29T15:07:10.701Z,92.80
2022-08-29T15:09:39.085Z,93.00
2022-08-29T15:12:06.388Z,93.30
2022-08-29T15:14:34.554Z,92.90
2022-08-29T15:17:02.716Z,92.70
2022-08-29T15:20:04.079Z,92.80
2022-08-29T15:22:18.104Z,92.60
2022-08-29T15:24:45.147Z,93.00
2022-08-29T15:27:12.352Z,92.60
2022-08-29T15:29:43.019Z,92.80
2022-08-29T15:32:15.029Z,92.80
2022-08-29T15:34:42.604Z,92.70
2022-08-29T15:37:10.526Z,93.00
2022-08-29T15:39:38.073Z,93.10
2022-08-29T15:42:11.189Z,93.10
2022-08-29T15:44:39.263Z,93.20
2022-08-29T15:47:10.446Z,93.20
2022-08-29T15:49:38.040Z,93.40
2022-08-29T15:52:04.981Z,93.70
2022-08-29T15:54:31.909Z,93.70
2022-08-29T15:56:58.786Z,93.60
2022-08-29T15:59:47.301Z,93.50
2022-08-29T16:02:14.510Z,93.40
2022-08-29T16:04:47.504Z,93.30
2022-08-29T16:07:15.756Z,93.40
2022-08-29T16:09:43.869Z,93.60
2022-08-29T16:12:14.679Z,93.80
2022-08-29T16:17:32.490Z,93.70
2022-08-29T16:20:01.024Z,93.90
2022-08-29T16:22:28.969Z,94.10
2022-08-29T16:24:57.996Z,94.10
2022-08-29T16:27:24.934Z,94.20
2022-08-29T16:29:53.176Z,94.40
2022-08-29T16:32:20.634Z,94.30
2022-08-29T16:34:47.562Z,94.10
2022-08-29T16:37:14.822Z,94.10
2022-08-29T16:39:43.942Z,94.10
2022-08-29T16:42:14.181Z,94.00
2022-08-29T16:44:41.631Z,94.20
2022-08-29T16:47:09.745Z,94.50
2022-08-29T16:49:37.304Z,94.60
2022-08-29T16:52:05.469Z,94.50
2022-08-29T16:54:32.457Z,94.70
2022-08-29T16:56:59.438Z,94.50
2022-08-29T16:59:26.416Z,94.50
2022-08-29T17:01:54.340Z,94.60
2022-08-29T17:04:27.751Z,94.50
2022-08-29T17:06:55.460Z,94.50
2022-08-29T17:09:24.677Z,94.60
2022-08-29T17:11:53.000Z,94.50
2022-08-29T17:14:21.461Z,94.50
2022-08-29T17:16:52.004Z,94.70
2022-08-29T17:19:20.473Z,94.70
2022-08-29T17:21:48.101Z,94.90
2022-08-29T17:24:15.361Z,94.70
2022-08-29T17:26:46.030Z,94.80
2022-08-29T17:29:15.061Z,94.90
2022-08-29T17:31:42.564Z,95.00
2022-08-29T17:34:10.161Z,95.10
2022-08-29T17:36:39.822Z,95.10
2022-08-29T17:39:07.291Z,95.30
2022-08-29T17:41:35.821Z,95.30
2022-08-29T17:44:06.127Z,95.40
2022-08-29T17:46:33.140Z,95.50
2022-08-29T17:49:04.235Z,95.50
2022-08-29T17:51:34.001Z,95.50
2022-08-29T17:54:01.116Z,95.60
2022-08-29T17:56:44.438Z,95.60
2022-08-29T17:59:13.136Z,95.50
2022-08-29T18:01:40.087Z,95.40
2022-08-29T18:04:08.379Z,95.70
2022-08-29T18:06:35.335Z,95.60
2022-08-29T18:09:02.418Z,95.80
2022-08-29T18:11:31.951Z,95.80
2022-08-29T18:14:01.069Z,95.90
2022-08-29T18:16:28.080Z,96.10
2022-08-29T18:18:55.005Z,96.20
2022-08-29T18:21:22.886Z,96.30
2022-08-29T18:23:49.910Z,96.40
2022-08-29T18:26:17.551Z,96.50
2022-08-29T18:28:44.529Z,96.60
2022-08-29T18:31:12.545Z,96.60
2022-08-29T18:34:03.378Z,96.70
2022-08-29T18:36:32.400Z,96.70
2022-08-29T18:39:05.454Z,96.80
2022-08-29T18:41:32.975Z,96.70
2022-08-29T18:44:00.167Z,96.70
2022-08-29T18:46:28.539Z,96.70
2022-08-29T18:48:56.306Z,96.80
2022-08-29T18:51:24.284Z,96.90
2022-08-29T18:53:52.132Z,97.00
2022-08-29T18:56:19.100Z,97.10
2022-08-29T18:58:46.208Z,97.10
2022-08-29T19:01:27.612Z,97.30
2022-08-29T19:03:56.950Z,97.50
2022-08-29T19:06:25.791Z,97.40
2022-08-29T19:08:54.716Z,97.70
2022-08-29T19:11:22.080Z,97.50
2022-08-29T19:13:52.212Z,97.60
2022-08-29T19:16:21.131Z,97.90
2022-08-29T19:18:48.474Z,97.80
2022-08-29T19:21:15.465Z,97.80
2022-08-29T19:23:45.425Z,97.80
2022-08-29T19:26:21.047Z,98.00
2022-08-29T19:28:48.047Z,98.20
2022-08-29T19:31:17.289Z,98.20
2022-08-29T19:33:45.112Z,98.30
2022-08-29T19:36:12.380Z,98.50
2022-08-29T19:38:43.863Z,98.70
2022-08-29T19:41:12.966Z,98.90
2022-08-29T19:43:41.035Z,99.10
2022-08-29T19:46:17.908Z,99.20
2022-08-29T19:51:32.723Z,99.80
2022-08-29T19:54:03.141Z,99.90
2022-08-29T19:56:33.471Z,99.90
2022-08-29T19:59:00.478Z,99.90
2022-08-29T20:01:28.038Z,99.90
2022-08-29T20:03:55.265Z,99.90
2022-08-29T20:06:23.326Z,99.90
2022-08-29T20:08:50.361Z,99.90
2022-08-29T20:11:26.271Z,99.90
2022-08-29T20:13:57.945Z,99.90
2022-08-29T20:16:31.484Z,99.90
2022-08-29T20:19:05.252Z,99.90
2022-08-29T20:21:34.861Z,99.90
2022-08-29T20:24:03.986Z,99.90
2022-08-29T20:26:32.930Z,99.90
2022-08-29T20:29:01.767Z,99.90
2022-08-29T20:31:29.424Z,99.90
2022-08-29T20:33:56.544Z,99.90
2022-08-29T20:36:44.519Z,99.90
2022-08-29T20:39:15.167Z,99.90
2022-08-29T20:41:46.929Z,99.90
2022-08-29T20:44:18.164Z,99.90
2022-08-29T20:46:45.802Z,99.90
2022-08-29T20:49:19.589Z,99.90
2022-08-29T20:51:49.433Z,99.90
2022-08-29T20:54:21.312Z,99.90
2022-08-29T20:56:48.692Z,99.90
2022-08-29T20:59:16.385Z,99.90
2022-08-29T21:01:46.482Z,99.90
2022-08-29T21:04:33.621Z,99.90
2022-08-29T21:07:03.687Z,99.90
2022-08-29T21:09:30.939Z,99.90
2022-08-29T21:11:58.944Z,99.90
2022-08-29T21:14:27.498Z,99.90
2022-08-29T21:16:56.868Z,99.90
2022-08-29T21:19:27.205Z,99.90
2022-08-29T21:21:54.398Z,99.90
2022-08-29T21:24:25.053Z,99.90
2022-08-29T21:26:51.936Z,99.90
2022-08-29T21:29:21.043Z,99.90
2022-08-29T21:31:49.400Z,99.90
2022-08-29T21:34:17.235Z,99.90
2022-08-29T21:36:44.872Z,99.90
2022-08-29T21:39:13.583Z,99.90
2022-08-29T21:41:46.800Z,99.90
2022-08-29T21:44:15.125Z,99.90
2022-08-29T21:46:47.187Z,99.90
2022-08-29T21:49:17.553Z,99.90
2022-08-29T21:51:46.437Z,99.90
2022-08-29T21:54:15.237Z,99.90
2022-08-29T21:56:45.999Z,99.90
2022-08-29T21:59:13.955Z,99.90
2022-08-29T22:01:43.759Z,99.90
2022-08-29T22:04:19.315Z,99.90
2022-08-29T22:06:56.297Z,99.90
2022-08-29T22:09:23.285Z,99.90
2022-08-29T22:11:50.282Z,99.90
2022-08-29T22:14:17.326Z,99.90
2022-08-29T22:16:44.245Z,99.90
2022-08-29T22:19:15.884Z,99.90
2022-08-29T22:21:45.866Z,99.90
2022-08-29T22:24:16.328Z,99.90
2022-08-29T22:26:43.982Z,99.90
2022-08-29T22:29:13.658Z,99.90
2022-08-29T22:31:42.480Z,99.90
2022-08-29T22:34:11.096Z,99.90
2022-08-29T22:36:38.131Z,99.90
2022-08-29T22:39:05.473Z,99.90
2022-08-29T22:41:34.104Z,99.90
2022-08-29T22:44:42.448Z,99.90
2022-08-29T22:46:53.852Z,99.90
2022-08-29T22:49:21.886Z,99.90
2022-08-29T22:51:49.046Z,99.90
2022-08-29T22:54:34.819Z,99.90
2022-08-29T22:57:11.089Z,99.90
2022-08-29T22:59:38.780Z,99.90
2022-08-29T23:02:07.189Z,99.90
2022-08-29T23:04:34.584Z,99.90
2022-08-29T23:07:03.074Z,99.90
2022-08-29T23:09:35.220Z,99.90
2022-08-29T23:12:07.404Z,99.90
2022-08-29T23:14:37.281Z,99.90
2022-08-29T23:17:06.173Z,99.90
2022-08-29T23:19:33.561Z,99.90
2022-08-29T23:22:02.275Z,99.90
2022-08-29T23:24:34.678Z,99.90
2022-08-29T23:27:01.564Z,99.90
2022-08-29T23:29:30.979Z,99.90
2022-08-29T23:31:57.912Z,99.90
2022-08-29T23:34:25.834Z,99.90
2022-08-29T23:36:52.822Z,99.90
2022-08-29T23:39:19.748Z,99.90
2022-08-29T23:41:46.609Z,99.90
2022-08-29T23:44:13.453Z,99.90
2022-08-29T23:46:40.369Z,99.90
2022-08-29T23:49:07.801Z,99.90
2022-08-29T23:51:34.839Z,99.90
2022-08-29T23:54:01.934Z,99.90
2022-08-29T23:56:31.864Z,99.90
2022-08-29T23:59:00.072Z,99.90
